Аэропорт: Домодедово. Москва

ICAO: UUDD

METAR:
2019/05/26 14:00
UUDD 261400Z 18002MPS 150V240 9999 FEW046 21/10 Q1004 R88/CLRD70 NOSIG
METAR:
2019/05/26 12:21
TAF UUDD 261056Z 2612/2718 26002MPS 9999 SCT011 TX22/2612Z TN11/2701Z 
      TEMPO 2612/2618 -SHRA BKN020 SCT025CB PROB40 
      TEMPO 2612/2618 -TSRA BKN012CB PROB40 
      TEMPO 2618/2624 0300 FG FEW003 
      BECMG 2700/2702 26007G13MPS